sensor_id;sensor_type;location;lat;lon;timestamp;temperature;humidity
7762;DHT22;3925;48.636;9.516;2023-04-05T00:00:20;1.50;95.00
7762;DHT22;3925;48.636;9.516;2023-04-05T00:02:47;1.50;95.40
7762;DHT22;3925;48.636;9.516;2023-04-05T00:05:15;1.30;95.80
7762;DHT22;3925;48.636;9.516;2023-04-05T00:07:53;1.70;96.50
7762;DHT22;3925;48.636;9.516;2023-04-05T00:10:20;1.60;95.70
7762;DHT22;3925;48.636;9.516;2023-04-05T00:12:47;1.80;95.30
7762;DHT22;3925;48.636;9.516;2023-04-05T00:15:15;1.80;95.60
7762;DHT22;3925;48.636;9.516;2023-04-05T00:17:42;1.90;95.60
7762;DHT22;3925;48.636;9.516;2023-04-05T00:20:11;1.90;95.70
7762;DHT22;3925;48.636;9.516;2023-04-05T00:22:40;1.70;94.90
7762;DHT22;3925;48.636;9.516;2023-04-05T00:25:09;1.80;95.40
7762;DHT22;3925;48.636;9.516;2023-04-05T00:27:36;2.10;95.50
7762;DHT22;3925;48.636;9.516;2023-04-05T00:30:03;2.10;95.10
7762;DHT22;3925;48.636;9.516;2023-04-05T00:32:31;1.90;95.20
7762;DHT22;3925;48.636;9.516;2023-04-05T00:34:57;1.80;95.30
7762;DHT22;3925;48.636;9.516;2023-04-05T00:37:24;1.60;96.10
7762;DHT22;3925;48.636;9.516;2023-04-05T00:39:53;1.30;97.50
7762;DHT22;3925;48.636;9.516;2023-04-05T00:42:21;1.20;97.90
7762;DHT22;3925;48.636;9.516;2023-04-05T00:44:48;1.10;98.60
7762;DHT22;3925;48.636;9.516;2023-04-05T00:47:15;1.00;98.90
7762;DHT22;3925;48.636;9.516;2023-04-05T00:49:42;1.00;99.60
7762;DHT22;3925;48.636;9.516;2023-04-05T00:52:09;1.10;99.10
7762;DHT22;3925;48.636;9.516;2023-04-05T00:54:35;1.10;98.70
7762;DHT22;3925;48.636;9.516;2023-04-05T00:57:05;1.10;98.20
7762;DHT22;3925;48.636;9.516;2023-04-05T00:59:32;1.40;98.60
7762;DHT22;3925;48.636;9.516;2023-04-05T01:02:01;1.50;97.60
7762;DHT22;3925;48.636;9.516;2023-04-05T01:04:32;1.40;97.10
7762;DHT22;3925;48.636;9.516;2023-04-05T01:07:07;1.70;97.50
7762;DHT22;3925;48.636;9.516;2023-04-05T01:09:44;2.00;96.60
7762;DHT22;3925;48.636;9.516;2023-04-05T01:12:16;1.80;96.60
7762;DHT22;3925;48.636;9.516;2023-04-05T01:14:48;2.00;96.20
7762;DHT22;3925;48.636;9.516;2023-04-05T01:17:16;1.90;96.40
7762;DHT22;3925;48.636;9.516;2023-04-05T01:19:47;1.70;96.30
7762;DHT22;3925;48.636;9.516;2023-04-05T01:25:45;1.90;96.10
7762;DHT22;3925;48.636;9.516;2023-04-05T01:31:21;1.70;96.40
7762;DHT22;3925;48.636;9.516;2023-04-05T01:34:04;1.50;96.40
7762;DHT22;3925;48.636;9.516;2023-04-05T01:36:35;1.00;97.10
7762;DHT22;3925;48.636;9.516;2023-04-05T01:39:05;0.90;97.60
7762;DHT22;3925;48.636;9.516;2023-04-05T01:41:33;0.70;98.30
7762;DHT22;3925;48.636;9.516;2023-04-05T01:44:00;0.70;99.00
7762;DHT22;3925;48.636;9.516;2023-04-05T01:46:28;0.90;99.10
7762;DHT22;3925;48.636;9.516;2023-04-05T01:48:55;0.90;98.70
7762;DHT22;3925;48.636;9.516;2023-04-05T01:51:22;1.30;99.30
7762;DHT22;3925;48.636;9.516;2023-04-05T01:53:50;1.20;98.10
7762;DHT22;3925;48.636;9.516;2023-04-05T01:56:16;0.80;98.60
7762;DHT22;3925;48.636;9.516;2023-04-05T01:58:43;0.60;99.50
7762;DHT22;3925;48.636;9.516;2023-04-05T02:01:10;0.80;99.80
7762;DHT22;3925;48.636;9.516;2023-04-05T02:03:38;0.50;99.40
7762;DHT22;3925;48.636;9.516;2023-04-05T02:06:05;0.70;99.90
7762;DHT22;3925;48.636;9.516;2023-04-05T02:08:32;1.10;99.30
7762;DHT22;3925;48.636;9.516;2023-04-05T02:10:59;1.30;98.70
7762;DHT22;3925;48.636;9.516;2023-04-05T02:13:26;1.20;98.60
7762;DHT22;3925;48.636;9.516;2023-04-05T02:15:53;1.00;98.50
7762;DHT22;3925;48.636;9.516;2023-04-05T02:18:20;1.00;99.30
7762;DHT22;3925;48.636;9.516;2023-04-05T02:20:50;0.60;99.50
7762;DHT22;3925;48.636;9.516;2023-04-05T02:23:18;0.70;99.80
7762;DHT22;3925;48.636;9.516;2023-04-05T02:25:45;0.80;99.90
7762;DHT22;3925;48.636;9.516;2023-04-05T02:28:12;1.00;99.10
7762;DHT22;3925;48.636;9.516;2023-04-05T02:30:39;0.70;99.40
7762;DHT22;3925;48.636;9.516;2023-04-05T02:33:06;0.40;99.70
7762;DHT22;3925;48.636;9.516;2023-04-05T02:35:34;0.10;99.90
7762;DHT22;3925;48.636;9.516;2023-04-05T02:38:03;0.20;99.90
7762;DHT22;3925;48.636;9.516;2023-04-05T02:40:30;0.40;99.90
7762;DHT22;3925;48.636;9.516;2023-04-05T02:42:57;0.40;99.90
7762;DHT22;3925;48.636;9.516;2023-04-05T02:45:24;0.40;99.90
7762;DHT22;3925;48.636;9.516;2023-04-05T02:47:52;0.50;99.90
7762;DHT22;3925;48.636;9.516;2023-04-05T02:50:19;0.50;99.90
7762;DHT22;3925;48.636;9.516;2023-04-05T02:52:48;0.70;99.90
7762;DHT22;3925;48.636;9.516;2023-04-05T02:55:17;0.70;99.90
7762;DHT22;3925;48.636;9.516;2023-04-05T02:57:44;0.80;99.90
7762;DHT22;3925;48.636;9.516;2023-04-05T03:00:12;0.80;99.90
7762;DHT22;3925;48.636;9.516;2023-04-05T03:02:39;0.90;99.90
7762;DHT22;3925;48.636;9.516;2023-04-05T03:05:07;1.00;99.90
7762;DHT22;3925;48.636;9.516;2023-04-05T03:07:34;0.70;99.90
7762;DHT22;3925;48.636;9.516;2023-04-05T03:10:01;0.30;99.90
7762;DHT22;3925;48.636;9.516;2023-04-05T03:12:30;0.60;99.90
7762;DHT22;3925;48.636;9.516;2023-04-05T03:14:57;0.40;99.90
7762;DHT22;3925;48.636;9.516;2023-04-05T03:17:24;0.40;99.90
7762;DHT22;3925;48.636;9.516;2023-04-05T03:19:51;0.80;99.90
7762;DHT22;3925;48.636;9.516;2023-04-05T03:22:18;0.70;99.90
7762;DHT22;3925;48.636;9.516;2023-04-05T03:24:45;0.40;99.90
7762;DHT22;3925;48.636;9.516;2023-04-05T03:27:12;0.40;99.90
7762;DHT22;3925;48.636;9.516;2023-04-05T03:29:40;0.60;99.90
7762;DHT22;3925;48.636;9.516;2023-04-05T03:32:07;0.50;99.90
7762;DHT22;3925;48.636;9.516;2023-04-05T03:34:36;0.40;99.90
7762;DHT22;3925;48.636;9.516;2023-04-05T03:37:03;0.20;99.90
7762;DHT22;3925;48.636;9.516;2023-04-05T03:39:30;0.10;99.90
7762;DHT22;3925;48.636;9.516;2023-04-05T03:41:57;0.30;99.90
7762;DHT22;3925;48.636;9.516;2023-04-05T03:44:23;0.00;99.90
7762;DHT22;3925;48.636;9.516;2023-04-05T03:46:52;0.00;99.90
7762;DHT22;3925;48.636;9.516;2023-04-05T03:49:18;0.00;99.90
7762;DHT22;3925;48.636;9.516;2023-04-05T03:51:46;-0.10;99.90
7762;DHT22;3925;48.636;9.516;2023-04-05T03:54:13;-0.20;99.90
7762;DHT22;3925;48.636;9.516;2023-04-05T03:56:40;-0.30;99.90
7762;DHT22;3925;48.636;9.516;2023-04-05T03:59:07;-0.30;99.90
7762;DHT22;3925;48.636;9.516;2023-04-05T04:01:34;-0.30;99.90
7762;DHT22;3925;48.636;9.516;2023-04-05T04:04:02;0.00;99.90
7762;DHT22;3925;48.636;9.516;2023-04-05T04:06:29;0.20;99.90
7762;DHT22;3925;48.636;9.516;2023-04-05T04:08:56;0.40;99.90
7762;DHT22;3925;48.636;9.516;2023-04-05T04:11:23;0.20;99.90
7762;DHT22;3925;48.636;9.516;2023-04-05T04:13:50;0.10;99.90
7762;DHT22;3925;48.636;9.516;2023-04-05T04:16:17;0.00;99.90
7762;DHT22;3925;48.636;9.516;2023-04-05T04:18:44;-0.10;99.90
7762;DHT22;3925;48.636;9.516;2023-04-05T04:21:12;0.00;99.90
7762;DHT22;3925;48.636;9.516;2023-04-05T04:23:41;0.00;99.90
7762;DHT22;3925;48.636;9.516;2023-04-05T04:26:10;-0.10;99.90
7762;DHT22;3925;48.636;9.516;2023-04-05T04:28:38;0.00;99.90
7762;DHT22;3925;48.636;9.516;2023-04-05T04:31:11;0.10;99.90
7762;DHT22;3925;48.636;9.516;2023-04-05T04:33:38;0.00;99.90
7762;DHT22;3925;48.636;9.516;2023-04-05T04:36:08;0.00;99.90
7762;DHT22;3925;48.636;9.516;2023-04-05T04:38:39;0.10;99.90
7762;DHT22;3925;48.636;9.516;2023-04-05T04:41:08;-0.10;99.90
7762;DHT22;3925;48.636;9.516;2023-04-05T04:43:35;0.00;99.90
7762;DHT22;3925;48.636;9.516;2023-04-05T04:46:08;0.30;99.90
7762;DHT22;3925;48.636;9.516;2023-04-05T04:48:39;0.40;99.90
7762;DHT22;3925;48.636;9.516;2023-04-05T04:51:07;0.10;99.90
7762;DHT22;3925;48.636;9.516;2023-04-05T04:53:34;-0.10;99.90
7762;DHT22;3925;48.636;9.516;2023-04-05T04:56:05;-0.20;99.90
7762;DHT22;3925;48.636;9.516;2023-04-05T04:58:32;-0.30;99.90
7762;DHT22;3925;48.636;9.516;2023-04-05T05:00:59;-0.20;99.90
7762;DHT22;3925;48.636;9.516;2023-04-05T05:03:25;0.20;99.90
7762;DHT22;3925;48.636;9.516;2023-04-05T05:05:52;0.10;99.90
7762;DHT22;3925;48.636;9.516;2023-04-05T05:08:19;-0.10;99.90
7762;DHT22;3925;48.636;9.516;2023-04-05T05:10:49;-0.10;99.90
7762;DHT22;3925;48.636;9.516;2023-04-05T05:13:18;0.10;99.90
7762;DHT22;3925;48.636;9.516;2023-04-05T05:15:45;0.30;99.90
7762;DHT22;3925;48.636;9.516;2023-04-05T05:18:13;0.40;99.90
7762;DHT22;3925;48.636;9.516;2023-04-05T05:20:40;0.30;99.90
7762;DHT22;3925;48.636;9.516;2023-04-05T05:23:08;0.60;99.90
7762;DHT22;3925;48.636;9.516;2023-04-05T05:25:35;0.70;99.90
7762;DHT22;3925;48.636;9.516;2023-04-05T05:28:02;1.00;99.90
7762;DHT22;3925;48.636;9.516;2023-04-05T05:30:30;0.90;99.90
7762;DHT22;3925;48.636;9.516;2023-04-05T05:32:57;1.10;99.90
7762;DHT22;3925;48.636;9.516;2023-04-05T05:35:24;1.50;99.90
7762;DHT22;3925;48.636;9.516;2023-04-05T05:37:52;1.70;99.90
7762;DHT22;3925;48.636;9.516;2023-04-05T05:40:19;2.00;99.90
7762;DHT22;3925;48.636;9.516;2023-04-05T05:42:45;2.20;99.90
7762;DHT22;3925;48.636;9.516;2023-04-05T05:45:12;2.40;99.60
7762;DHT22;3925;48.636;9.516;2023-04-05T05:47:40;2.70;99.30
7762;DHT22;3925;48.636;9.516;2023-04-05T05:50:08;3.30;99.10
7762;DHT22;3925;48.636;9.516;2023-04-05T05:52:35;4.60;97.00
7762;DHT22;3925;48.636;9.516;2023-04-05T05:55:02;6.10;94.40
7762;DHT22;3925;48.636;9.516;2023-04-05T05:57:28;7.60;91.90
7762;DHT22;3925;48.636;9.516;2023-04-05T05:59:56;9.60;85.00
7762;DHT22;3925;48.636;9.516;2023-04-05T06:02:23;11.60;74.10
7762;DHT22;3925;48.636;9.516;2023-04-05T06:04:52;13.10;64.10
7762;DHT22;3925;48.636;9.516;2023-04-05T06:07:19;14.20;58.60
7762;DHT22;3925;48.636;9.516;2023-04-05T06:09:46;15.20;53.40
7762;DHT22;3925;48.636;9.516;2023-04-05T06:12:13;16.10;50.50
7762;DHT22;3925;48.636;9.516;2023-04-05T06:14:39;16.30;48.30
7762;DHT22;3925;48.636;9.516;2023-04-05T06:17:06;16.40;47.10
7762;DHT22;3925;48.636;9.516;2023-04-05T06:19:33;16.30;45.50
7762;DHT22;3925;48.636;9.516;2023-04-05T06:22:01;17.00;45.60
7762;DHT22;3925;48.636;9.516;2023-04-05T06:24:28;17.80;43.20
7762;DHT22;3925;48.636;9.516;2023-04-05T06:26:56;17.70;40.80
7762;DHT22;3925;48.636;9.516;2023-04-05T06:29:23;16.40;41.10
7762;DHT22;3925;48.636;9.516;2023-04-05T06:31:50;17.10;41.50
7762;DHT22;3925;48.636;9.516;2023-04-05T06:34:17;17.80;40.80
7762;DHT22;3925;48.636;9.516;2023-04-05T06:36:44;19.00;39.30
7762;DHT22;3925;48.636;9.516;2023-04-05T06:39:13;20.20;37.00
7762;DHT22;3925;48.636;9.516;2023-04-05T06:41:40;21.30;36.00
7762;DHT22;3925;48.636;9.516;2023-04-05T06:44:07;22.00;34.30
7762;DHT22;3925;48.636;9.516;2023-04-05T06:46:34;22.40;33.20
7762;DHT22;3925;48.636;9.516;2023-04-05T06:49:00;23.40;31.90
7762;DHT22;3925;48.636;9.516;2023-04-05T06:51:27;23.20;31.50
7762;DHT22;3925;48.636;9.516;2023-04-05T06:53:54;24.20;31.80
7762;DHT22;3925;48.636;9.516;2023-04-05T06:56:22;24.70;30.00
7762;DHT22;3925;48.636;9.516;2023-04-05T06:58:49;24.10;30.00
7762;DHT22;3925;48.636;9.516;2023-04-05T07:01:16;24.90;29.90
7762;DHT22;3925;48.636;9.516;2023-04-05T07:03:43;25.40;29.10
7762;DHT22;3925;48.636;9.516;2023-04-05T07:06:10;25.10;28.40
7762;DHT22;3925;48.636;9.516;2023-04-05T07:08:37;25.50;28.00
7762;DHT22;3925;48.636;9.516;2023-04-05T07:11:04;24.60;28.20
7762;DHT22;3925;48.636;9.516;2023-04-05T07:13:32;24.70;27.80
7762;DHT22;3925;48.636;9.516;2023-04-05T07:16:00;24.10;28.00
7762;DHT22;3925;48.636;9.516;2023-04-05T07:18:27;25.40;26.80
7762;DHT22;3925;48.636;9.516;2023-04-05T07:20:56;24.40;27.00
7762;DHT22;3925;48.636;9.516;2023-04-05T07:23:26;24.70;27.60
7762;DHT22;3925;48.636;9.516;2023-04-05T07:25:53;24.50;27.70
7762;DHT22;3925;48.636;9.516;2023-04-05T07:28:20;24.50;27.40
7762;DHT22;3925;48.636;9.516;2023-04-05T07:30:49;25.30;28.00
7762;DHT22;3925;48.636;9.516;2023-04-05T07:33:15;25.50;26.80
7762;DHT22;3925;48.636;9.516;2023-04-05T07:35:42;25.70;27.00
7762;DHT22;3925;48.636;9.516;2023-04-05T07:38:09;26.50;27.60
7762;DHT22;3925;48.636;9.516;2023-04-05T07:40:36;27.00;26.90
7762;DHT22;3925;48.636;9.516;2023-04-05T07:43:03;28.10;25.80
7762;DHT22;3925;48.636;9.516;2023-04-05T07:45:30;28.90;25.00
7762;DHT22;3925;48.636;9.516;2023-04-05T07:47:58;29.40;24.60
7762;DHT22;3925;48.636;9.516;2023-04-05T07:50:25;29.60;24.10
7762;DHT22;3925;48.636;9.516;2023-04-05T07:52:52;30.20;24.20
7762;DHT22;3925;48.636;9.516;2023-04-05T07:55:18;28.30;21.80
7762;DHT22;3925;48.636;9.516;2023-04-05T07:57:45;27.50;23.40
7762;DHT22;3925;48.636;9.516;2023-04-05T08:00:13;28.20;23.40
7762;DHT22;3925;48.636;9.516;2023-04-05T08:02:40;28.80;22.90
7762;DHT22;3925;48.636;9.516;2023-04-05T08:05:09;27.80;22.90
7762;DHT22;3925;48.636;9.516;2023-04-05T08:07:35;26.30;24.30
7762;DHT22;3925;48.636;9.516;2023-04-05T08:10:03;27.80;23.50
7762;DHT22;3925;48.636;9.516;2023-04-05T08:12:31;29.30;21.90
7762;DHT22;3925;48.636;9.516;2023-04-05T08:14:57;28.10;22.30
7762;DHT22;3925;48.636;9.516;2023-04-05T08:17:24;26.80;23.40
7762;DHT22;3925;48.636;9.516;2023-04-05T08:19:52;28.00;23.60
7762;DHT22;3925;48.636;9.516;2023-04-05T08:22:20;27.20;23.50
7762;DHT22;3925;48.636;9.516;2023-04-05T08:24:47;27.10;22.60
7762;DHT22;3925;48.636;9.516;2023-04-05T08:27:14;27.50;23.20
7762;DHT22;3925;48.636;9.516;2023-04-05T08:29:43;26.40;23.70
7762;DHT22;3925;48.636;9.516;2023-04-05T08:32:09;25.60;23.70
7762;DHT22;3925;48.636;9.516;2023-04-05T08:34:36;26.40;25.00
7762;DHT22;3925;48.636;9.516;2023-04-05T08:37:03;25.50;24.20
7762;DHT22;3925;48.636;9.516;2023-04-05T08:39:33;26.60;25.10
7762;DHT22;3925;48.636;9.516;2023-04-05T08:42:03;28.30;24.00
7762;DHT22;3925;48.636;9.516;2023-04-05T08:44:36;29.30;23.00
7762;DHT22;3925;48.636;9.516;2023-04-05T08:47:03;28.10;22.50
7762;DHT22;3925;48.636;9.516;2023-04-05T08:49:30;29.40;22.50
7762;DHT22;3925;48.636;9.516;2023-04-05T08:51:59;28.60;20.60
7762;DHT22;3925;48.636;9.516;2023-04-05T08:54:26;27.80;22.20
7762;DHT22;3925;48.636;9.516;2023-04-05T08:56:55;27.60;22.30
7762;DHT22;3925;48.636;9.516;2023-04-05T08:59:23;26.90;22.50
7762;DHT22;3925;48.636;9.516;2023-04-05T09:01:50;27.70;22.30
7762;DHT22;3925;48.636;9.516;2023-04-05T09:04:20;27.40;21.10
7762;DHT22;3925;48.636;9.516;2023-04-05T09:06:49;27.00;22.30
7762;DHT22;3925;48.636;9.516;2023-04-05T09:09:16;27.90;21.60
7762;DHT22;3925;48.636;9.516;2023-04-05T09:11:44;25.70;20.60
7762;DHT22;3925;48.636;9.516;2023-04-05T09:14:12;25.20;23.20
7762;DHT22;3925;48.636;9.516;2023-04-05T09:16:40;24.70;23.60
7762;DHT22;3925;48.636;9.516;2023-04-05T09:19:08;23.40;22.80
7762;DHT22;3925;48.636;9.516;2023-04-05T09:21:58;20.80;23.70
7762;DHT22;3925;48.636;9.516;2023-04-05T09:24:33;18.70;26.10
7762;DHT22;3925;48.636;9.516;2023-04-05T09:27:05;18.80;28.10
7762;DHT22;3925;48.636;9.516;2023-04-05T09:29:34;20.30;27.70
7762;DHT22;3925;48.636;9.516;2023-04-05T09:32:02;19.70;26.60
7762;DHT22;3925;48.636;9.516;2023-04-05T09:34:29;19.50;27.20
7762;DHT22;3925;48.636;9.516;2023-04-05T09:36:58;19.70;26.30
7762;DHT22;3925;48.636;9.516;2023-04-05T09:39:28;20.80;25.40
7762;DHT22;3925;48.636;9.516;2023-04-05T09:42:07;21.40;25.80
7762;DHT22;3925;48.636;9.516;2023-04-05T09:44:54;23.50;25.30
7762;DHT22;3925;48.636;9.516;2023-04-05T09:47:22;22.40;24.30
7762;DHT22;3925;48.636;9.516;2023-04-05T09:49:51;23.70;26.60
7762;DHT22;3925;48.636;9.516;2023-04-05T09:52:20;26.30;25.40
7762;DHT22;3925;48.636;9.516;2023-04-05T09:54:48;25.10;22.80
7762;DHT22;3925;48.636;9.516;2023-04-05T09:57:15;24.10;22.90
7762;DHT22;3925;48.636;9.516;2023-04-05T09:59:43;23.10;22.60
7762;DHT22;3925;48.636;9.516;2023-04-05T10:02:12;22.70;24.40
7762;DHT22;3925;48.636;9.516;2023-04-05T10:04:39;21.90;25.00
7762;DHT22;3925;48.636;9.516;2023-04-05T10:07:08;21.40;24.60
7762;DHT22;3925;48.636;9.516;2023-04-05T10:09:38;22.00;27.10
7762;DHT22;3925;48.636;9.516;2023-04-05T10:12:06;24.60;25.90
7762;DHT22;3925;48.636;9.516;2023-04-05T10:14:34;26.50;24.80
7762;DHT22;3925;48.636;9.516;2023-04-05T10:17:22;28.00;23.40
7762;DHT22;3925;48.636;9.516;2023-04-05T10:20:06;28.00;23.40
7762;DHT22;3925;48.636;9.516;2023-04-05T10:22:40;26.60;21.70
7762;DHT22;3925;48.636;9.516;2023-04-05T10:25:15;24.40;21.50
7762;DHT22;3925;48.636;9.516;2023-04-05T10:27:47;22.50;24.40
7762;DHT22;3925;48.636;9.516;2023-04-05T10:30:15;21.90;25.50
7762;DHT22;3925;48.636;9.516;2023-04-05T10:32:56;21.50;24.70
7762;DHT22;3925;48.636;9.516;2023-04-05T10:35:30;22.40;25.10
7762;DHT22;3925;48.636;9.516;2023-04-05T10:38:11;21.50;23.90
7762;DHT22;3925;48.636;9.516;2023-04-05T10:40:46;21.60;25.50
7762;DHT22;3925;48.636;9.516;2023-04-05T10:43:16;21.10;27.40
7762;DHT22;3925;48.636;9.516;2023-04-05T10:45:44;22.60;25.40
7762;DHT22;3925;48.636;9.516;2023-04-05T10:48:23;23.60;26.20
7762;DHT22;3925;48.636;9.516;2023-04-05T10:50:55;24.30;24.30
7762;DHT22;3925;48.636;9.516;2023-04-05T10:53:24;24.30;23.80
7762;DHT22;3925;48.636;9.516;2023-04-05T10:55:52;22.90;24.90
7762;DHT22;3925;48.636;9.516;2023-04-05T10:58:22;23.40;25.40
7762;DHT22;3925;48.636;9.516;2023-04-05T11:00:50;23.40;25.00
7762;DHT22;3925;48.636;9.516;2023-04-05T11:03:45;21.80;25.30
7762;DHT22;3925;48.636;9.516;2023-04-05T11:06:20;22.80;25.00
7762;DHT22;3925;48.636;9.516;2023-04-05T11:08:48;20.50;25.00
7762;DHT22;3925;48.636;9.516;2023-04-05T11:11:17;19.80;27.00
7762;DHT22;3925;48.636;9.516;2023-04-05T11:13:49;19.30;27.50
7762;DHT22;3925;48.636;9.516;2023-04-05T11:16:16;19.50;28.50
7762;DHT22;3925;48.636;9.516;2023-04-05T11:18:48;18.90;28.90
7762;DHT22;3925;48.636;9.516;2023-04-05T11:21:23;18.80;28.90
7762;DHT22;3925;48.636;9.516;2023-04-05T11:24:01;18.40;28.20
7762;DHT22;3925;48.636;9.516;2023-04-05T11:26:51;17.70;28.70
7762;DHT22;3925;48.636;9.516;2023-04-05T11:29:22;17.00;29.80
7762;DHT22;3925;48.636;9.516;2023-04-05T11:32:11;17.40;29.80
7762;DHT22;3925;48.636;9.516;2023-04-05T11:34:42;17.20;31.10
7762;DHT22;3925;48.636;9.516;2023-04-05T11:37:09;17.50;31.80
7762;DHT22;3925;48.636;9.516;2023-04-05T11:39:36;17.50;32.40
7762;DHT22;3925;48.636;9.516;2023-04-05T11:42:04;16.80;30.50
7762;DHT22;3925;48.636;9.516;2023-04-05T11:44:43;15.60;31.80
7762;DHT22;3925;48.636;9.516;2023-04-05T11:47:10;14.40;32.50
7762;DHT22;3925;48.636;9.516;2023-04-05T11:49:38;14.30;35.10
7762;DHT22;3925;48.636;9.516;2023-04-05T11:52:12;14.20;33.10
7762;DHT22;3925;48.636;9.516;2023-04-05T11:54:40;14.30;34.60
7762;DHT22;3925;48.636;9.516;2023-04-05T11:57:12;14.20;33.20
7762;DHT22;3925;48.636;9.516;2023-04-05T11:59:39;14.20;33.80
7762;DHT22;3925;48.636;9.516;2023-04-05T12:02:06;14.50;36.20
7762;DHT22;3925;48.636;9.516;2023-04-05T12:04:34;15.10;35.30
7762;DHT22;3925;48.636;9.516;2023-04-05T12:07:12;14.90;35.80
7762;DHT22;3925;48.636;9.516;2023-04-05T12:09:59;14.50;32.90
7762;DHT22;3925;48.636;9.516;2023-04-05T12:12:27;14.80;36.30
7762;DHT22;3925;48.636;9.516;2023-04-05T12:14:59;14.90;33.60
7762;DHT22;3925;48.636;9.516;2023-04-05T12:17:40;14.70;34.40
7762;DHT22;3925;48.636;9.516;2023-04-05T12:20:08;14.50;33.40
7762;DHT22;3925;48.636;9.516;2023-04-05T12:22:37;14.60;36.60
7762;DHT22;3925;48.636;9.516;2023-04-05T12:25:05;14.40;35.40
7762;DHT22;3925;48.636;9.516;2023-04-05T12:27:32;14.00;35.80
7762;DHT22;3925;48.636;9.516;2023-04-05T12:30:10;14.30;39.50
7762;DHT22;3925;48.636;9.516;2023-04-05T12:32:46;13.70;34.90
7762;DHT22;3925;48.636;9.516;2023-04-05T12:35:15;13.50;38.60
7762;DHT22;3925;48.636;9.516;2023-04-05T12:37:44;13.50;36.90
7762;DHT22;3925;48.636;9.516;2023-04-05T12:40:12;13.30;38.70
7762;DHT22;3925;48.636;9.516;2023-04-05T12:42:40;13.10;35.40
7762;DHT22;3925;48.636;9.516;2023-04-05T12:45:10;12.40;35.30
7762;DHT22;3925;48.636;9.516;2023-04-05T12:47:48;12.60;38.80
7762;DHT22;3925;48.636;9.516;2023-04-05T12:50:16;12.70;37.30
7762;DHT22;3925;48.636;9.516;2023-04-05T12:52:55;11.80;37.40
7762;DHT22;3925;48.636;9.516;2023-04-05T12:55:23;11.80;39.20
7762;DHT22;3925;48.636;9.516;2023-04-05T12:57:54;11.60;38.50
7762;DHT22;3925;48.636;9.516;2023-04-05T13:00:24;11.50;40.00
7762;DHT22;3925;48.636;9.516;2023-04-05T13:02:53;11.80;40.80
7762;DHT22;3925;48.636;9.516;2023-04-05T13:05:21;11.70;40.00
7762;DHT22;3925;48.636;9.516;2023-04-05T13:07:49;11.80;41.30
7762;DHT22;3925;48.636;9.516;2023-04-05T13:10:17;11.30;40.40
7762;DHT22;3925;48.636;9.516;2023-04-05T13:12:45;11.30;41.20
7762;DHT22;3925;48.636;9.516;2023-04-05T13:15:12;11.00;40.80
7762;DHT22;3925;48.636;9.516;2023-04-05T13:17:40;11.00;40.00
7762;DHT22;3925;48.636;9.516;2023-04-05T13:20:08;11.20;40.50
7762;DHT22;3925;48.636;9.516;2023-04-05T13:22:35;11.20;41.30
7762;DHT22;3925;48.636;9.516;2023-04-05T13:25:02;11.40;42.70
7762;DHT22;3925;48.636;9.516;2023-04-05T13:27:31;11.30;41.20
7762;DHT22;3925;48.636;9.516;2023-04-05T13:29:58;11.30;41.20
7762;DHT22;3925;48.636;9.516;2023-04-05T13:32:25;11.00;40.20
7762;DHT22;3925;48.636;9.516;2023-04-05T13:34:51;11.00;39.90
7762;DHT22;3925;48.636;9.516;2023-04-05T13:37:18;11.10;40.40
7762;DHT22;3925;48.636;9.516;2023-04-05T13:39:45;11.30;43.30
7762;DHT22;3925;48.636;9.516;2023-04-05T13:42:12;11.70;42.60
7762;DHT22;3925;48.636;9.516;2023-04-05T13:44:40;11.90;41.60
7762;DHT22;3925;48.636;9.516;2023-04-05T13:47:07;12.20;42.00
7762;DHT22;3925;48.636;9.516;2023-04-05T13:49:34;12.40;39.60
7762;DHT22;3925;48.636;9.516;2023-04-05T13:52:01;11.90;39.40
7762;DHT22;3925;48.636;9.516;2023-04-05T13:54:28;11.80;38.40
7762;DHT22;3925;48.636;9.516;2023-04-05T13:56:55;11.50;38.40
7762;DHT22;3925;48.636;9.516;2023-04-05T13:59:23;11.70;38.30
7762;DHT22;3925;48.636;9.516;2023-04-05T14:01:52;11.90;41.50
7762;DHT22;3925;48.636;9.516;2023-04-05T14:04:19;12.10;40.10
7762;DHT22;3925;48.636;9.516;2023-04-05T14:06:46;12.10;39.00
7762;DHT22;3925;48.636;9.516;2023-04-05T14:09:13;12.10;39.20
7762;DHT22;3925;48.636;9.516;2023-04-05T14:11:40;12.10;39.50
7762;DHT22;3925;48.636;9.516;2023-04-05T14:14:07;12.20;39.80
7762;DHT22;3925;48.636;9.516;2023-04-05T14:16:33;11.90;39.40
7762;DHT22;3925;48.636;9.516;2023-04-05T14:19:03;12.00;38.80
7762;DHT22;3925;48.636;9.516;2023-04-05T14:21:30;12.00;39.30
7762;DHT22;3925;48.636;9.516;2023-04-05T14:23:58;11.80;38.20
7762;DHT22;3925;48.636;9.516;2023-04-05T14:26:25;11.90;39.60
7762;DHT22;3925;48.636;9.516;2023-04-05T14:28:53;11.60;38.30
7762;DHT22;3925;48.636;9.516;2023-04-05T14:31:21;11.40;38.00
7762;DHT22;3925;48.636;9.516;2023-04-05T14:33:49;11.10;40.40
7762;DHT22;3925;48.636;9.516;2023-04-05T14:36:18;11.00;39.30
7762;DHT22;3925;48.636;9.516;2023-04-05T14:38:45;11.20;40.50
7762;DHT22;3925;48.636;9.516;2023-04-05T14:41:12;11.30;40.30
7762;DHT22;3925;48.636;9.516;2023-04-05T14:43:39;11.20;38.60
7762;DHT22;3925;48.636;9.516;2023-04-05T14:46:06;11.30;39.00
7762;DHT22;3925;48.636;9.516;2023-04-05T14:48:33;10.90;37.90
7762;DHT22;3925;48.636;9.516;2023-04-05T14:51:02;10.90;39.70
7762;DHT22;3925;48.636;9.516;2023-04-05T14:53:30;11.10;39.80
7762;DHT22;3925;48.636;9.516;2023-04-05T14:55:57;11.10;39.30
7762;DHT22;3925;48.636;9.516;2023-04-05T14:58:24;11.00;38.70
7762;DHT22;3925;48.636;9.516;2023-04-05T15:00:53;11.10;39.60
7762;DHT22;3925;48.636;9.516;2023-04-05T15:03:21;10.60;38.20
7762;DHT22;3925;48.636;9.516;2023-04-05T15:05:48;10.60;39.80
7762;DHT22;3925;48.636;9.516;2023-04-05T15:08:15;10.80;40.70
7762;DHT22;3925;48.636;9.516;2023-04-05T15:10:44;11.00;40.70
7762;DHT22;3925;48.636;9.516;2023-04-05T15:13:11;10.90;40.30
7762;DHT22;3925;48.636;9.516;2023-04-05T15:15:38;11.10;41.40
7762;DHT22;3925;48.636;9.516;2023-04-05T15:18:06;11.10;40.60
7762;DHT22;3925;48.636;9.516;2023-04-05T15:20:33;11.00;40.40
7762;DHT22;3925;48.636;9.516;2023-04-05T15:23:00;11.10;41.10
7762;DHT22;3925;48.636;9.516;2023-04-05T15:25:27;11.00;40.30
7762;DHT22;3925;48.636;9.516;2023-04-05T15:27:56;11.00;40.70
7762;DHT22;3925;48.636;9.516;2023-04-05T15:30:24;10.90;41.90
7762;DHT22;3925;48.636;9.516;2023-04-05T15:32:52;11.10;41.20
7762;DHT22;3925;48.636;9.516;2023-04-05T15:35:20;10.80;40.10
7762;DHT22;3925;48.636;9.516;2023-04-05T15:37:47;10.50;40.60
7762;DHT22;3925;48.636;9.516;2023-04-05T15:40:14;10.30;39.60
7762;DHT22;3925;48.636;9.516;2023-04-05T15:42:41;10.50;40.40
7762;DHT22;3925;48.636;9.516;2023-04-05T15:45:10;10.40;41.50
7762;DHT22;3925;48.636;9.516;2023-04-05T15:47:37;10.40;40.70
7762;DHT22;3925;48.636;9.516;2023-04-05T15:50:05;10.40;40.60
7762;DHT22;3925;48.636;9.516;2023-04-05T15:52:33;10.40;40.10
7762;DHT22;3925;48.636;9.516;2023-04-05T15:55:01;10.40;40.20
7762;DHT22;3925;48.636;9.516;2023-04-05T15:57:28;10.30;39.90
7762;DHT22;3925;48.636;9.516;2023-04-05T15:59:56;10.30;39.80
7762;DHT22;3925;48.636;9.516;2023-04-05T16:02:24;10.40;40.90
7762;DHT22;3925;48.636;9.516;2023-04-05T16:04:51;10.60;40.40
7762;DHT22;3925;48.636;9.516;2023-04-05T16:07:18;10.50;39.10
7762;DHT22;3925;48.636;9.516;2023-04-05T16:09:45;10.40;39.10
7762;DHT22;3925;48.636;9.516;2023-04-05T16:12:12;10.20;38.70
7762;DHT22;3925;48.636;9.516;2023-04-05T16:14:39;10.20;39.10
7762;DHT22;3925;48.636;9.516;2023-04-05T16:17:06;10.10;39.30
7762;DHT22;3925;48.636;9.516;2023-04-05T16:19:34;10.00;39.80
7762;DHT22;3925;48.636;9.516;2023-04-05T16:22:01;9.90;40.10